createdAt,value
2023-04-02T00:00:17.658Z,154.55
2023-04-02T00:01:17.642Z,153.73
2023-04-02T00:02:17.687Z,152.67
2023-04-02T00:03:17.715Z,157.36
2023-04-02T00:04:17.649Z,158.79
2023-04-02T00:05:17.643Z,156.06
2023-04-02T00:06:17.631Z,151.74
2023-04-02T00:07:17.651Z,153.82
2023-04-02T00:08:17.634Z,154.56
2023-04-02T00:09:17.644Z,150.89
2023-04-02T00:10:17.636Z,156.05
2023-04-02T00:11:17.641Z,153.11
2023-04-02T00:12:17.641Z,158.28
2023-04-02T00:13:17.631Z,159.42
2023-04-02T00:14:17.637Z,154.36
2023-04-02T00:15:17.607Z,155.35
2023-04-02T00:16:17.672Z,156.71
2023-04-02T00:17:17.605Z,151.88
2023-04-02T00:18:17.669Z,160.08
2023-04-02T00:19:17.603Z,158.36
2023-04-02T00:20:17.627Z,161.69
2023-04-02T00:21:17.600Z,156.64
2023-04-02T00:22:17.604Z,158.27
2023-04-02T00:23:17.611Z,158.41
2023-04-02T00:24:17.627Z,154.53
2023-04-02T00:25:17.606Z,154.75
2023-04-02T00:26:17.604Z,155.97
2023-04-02T00:27:17.635Z,150.40
2023-04-02T00:28:17.653Z,148.56
2023-04-02T00:29:17.597Z,147.20
2023-04-02T00:30:17.609Z,146.19
2023-04-02T00:31:17.604Z,150.09
2023-04-02T00:32:17.723Z,153.22
2023-04-02T00:33:17.600Z,152.80
2023-04-02T00:34:17.613Z,150.84
2023-04-02T00:35:17.614Z,148.77
2023-04-02T00:36:17.668Z,146.60
2023-04-02T00:37:17.617Z,153.59
2023-04-02T00:38:17.596Z,153.24
2023-04-02T00:39:17.595Z,149.62
2023-04-02T00:40:17.609Z,151.62
2023-04-02T00:41:17.628Z,152.62
2023-04-02T00:42:17.585Z,161.20
2023-04-02T00:43:17.607Z,160.64
2023-04-02T00:44:17.600Z,152.80
2023-04-02T00:45:17.608Z,152.62
2023-04-02T00:46:17.631Z,159.10
2023-04-02T00:47:17.612Z,158.44
2023-04-02T00:48:17.598Z,150.61
2023-04-02T00:49:17.584Z,156.80
2023-04-02T00:50:17.610Z,157.31
2023-04-02T00:51:17.584Z,161.33
2023-04-02T00:52:17.608Z,162.81
2023-04-02T00:53:17.579Z,162.39
2023-04-02T00:54:17.598Z,155.00
2023-04-02T00:55:17.595Z,160.89
2023-04-02T00:56:17.604Z,159.65
2023-04-02T00:57:17.602Z,162.56
2023-04-02T00:58:17.596Z,162.80
2023-04-02T00:59:17.591Z,166.04
2023-04-02T01:00:17.572Z,161.05
2023-04-02T01:01:17.669Z,158.99
2023-04-02T01:02:17.725Z,161.27
2023-04-02T01:03:17.768Z,155.24
2023-04-02T01:04:17.588Z,160.06
2023-04-02T01:05:17.621Z,160.54
2023-04-02T01:06:17.588Z,155.79
2023-04-02T01:07:17.600Z,154.61
2023-04-02T01:08:17.606Z,162.99
2023-04-02T01:09:17.588Z,169.19
2023-04-02T01:10:17.588Z,160.07
2023-04-02T01:11:17.590Z,160.03
2023-04-02T01:12:17.585Z,161.91
2023-04-02T01:13:17.595Z,163.25
2023-04-02T01:14:17.596Z,158.82
2023-04-02T01:15:17.576Z,163.59
2023-04-02T01:16:17.613Z,161.05
2023-04-02T01:17:17.583Z,157.30
2023-04-02T01:18:17.562Z,158.56
2023-04-02T01:19:17.579Z,163.97
2023-04-02T01:20:17.581Z,163.11
2023-04-02T01:21:17.562Z,159.79
2023-04-02T01:22:17.579Z,162.71
2023-04-02T01:23:17.571Z,167.49
2023-04-02T01:24:17.578Z,146.24
2023-04-02T01:25:17.565Z,158.54
2023-04-02T01:26:17.553Z,157.89
2023-04-02T01:27:17.551Z,159.87
2023-04-02T01:28:17.563Z,158.72
2023-04-02T01:29:17.567Z,160.78
2023-04-02T01:30:17.553Z,164.26
2023-04-02T01:31:17.632Z,164.16
2023-04-02T01:32:17.544Z,161.84
2023-04-02T01:33:17.549Z,165.62
2023-04-02T01:34:17.559Z,163.55
2023-04-02T01:35:17.561Z,165.84
2023-04-02T01:36:17.626Z,171.03
2023-04-02T01:37:17.538Z,164.18
2023-04-02T01:38:17.562Z,160.89
2023-04-02T01:39:17.562Z,161.45
2023-04-02T01:40:17.540Z,157.79
2023-04-02T01:41:17.558Z,164.74
2023-04-02T01:42:17.572Z,157.08
2023-04-02T01:43:17.566Z,156.57
2023-04-02T01:44:17.584Z,159.52
2023-04-02T01:45:17.596Z,158.55
2023-04-02T01:46:17.642Z,162.19
2023-04-02T01:47:17.579Z,164.96
2023-04-02T01:48:17.601Z,166.51
2023-04-02T01:49:17.596Z,166.28
2023-04-02T01:50:17.598Z,160.61
2023-04-02T01:51:17.590Z,163.81
2023-04-02T01:52:17.601Z,163.02
2023-04-02T01:53:17.587Z,161.98
2023-04-02T01:54:17.616Z,165.98
2023-04-02T01:55:17.597Z,166.69
2023-04-02T01:56:17.623Z,167.16
2023-04-02T01:57:17.659Z,161.14
2023-04-02T01:58:17.600Z,164.51
2023-04-02T01:59:17.630Z,164.16
2023-04-02T02:00:17.616Z,169.37
2023-04-02T02:01:17.668Z,168.07
2023-04-02T02:02:17.659Z,163.42
2023-04-02T02:03:17.661Z,162.31
2023-04-02T02:04:17.629Z,164.40
2023-04-02T02:05:17.644Z,165.70
2023-04-02T02:06:17.672Z,163.20
2023-04-02T02:07:17.652Z,163.28
2023-04-02T02:08:17.674Z,165.09
2023-04-02T02:09:17.672Z,166.21
2023-04-02T02:10:17.670Z,168.70
2023-04-02T02:11:17.689Z,164.81
2023-04-02T02:12:17.689Z,167.28
2023-04-02T02:13:17.685Z,165.67
2023-04-02T02:14:17.674Z,165.77
2023-04-02T02:15:17.678Z,162.94
2023-04-02T02:16:17.776Z,168.59
2023-04-02T02:17:17.690Z,163.15
2023-04-02T02:18:17.672Z,162.80
2023-04-02T02:19:17.668Z,159.59
2023-04-02T02:20:17.688Z,163.29
2023-04-02T02:21:17.693Z,164.14
2023-04-02T02:22:17.684Z,162.83
2023-04-02T02:23:17.684Z,166.33
2023-04-02T02:24:17.707Z,162.84
2023-04-02T02:25:17.696Z,164.49
2023-04-02T02:26:17.698Z,164.35
2023-04-02T02:27:17.711Z,168.99
2023-04-02T02:28:17.731Z,168.27
2023-04-02T02:29:17.721Z,162.15
2023-04-02T02:30:17.720Z,162.34
2023-04-02T02:31:17.900Z,162.87
2023-04-02T02:32:17.704Z,162.73
2023-04-02T02:33:17.721Z,164.43
2023-04-02T02:34:17.757Z,163.07
2023-04-02T02:35:17.725Z,163.76
2023-04-02T02:36:17.768Z,164.37
2023-04-02T02:37:17.724Z,161.07
2023-04-02T02:38:17.726Z,158.35
2023-04-02T02:39:17.754Z,163.95
2023-04-02T02:40:17.745Z,162.57
2023-04-02T02:41:17.730Z,160.53
2023-04-02T02:42:17.736Z,165.30
2023-04-02T02:43:17.745Z,163.91
2023-04-02T02:44:17.745Z,166.50
2023-04-02T02:45:17.739Z,166.15
2023-04-02T02:46:17.783Z,165.03
2023-04-02T02:47:17.770Z,165.31
2023-04-02T02:48:17.744Z,166.00
2023-04-02T02:49:17.744Z,169.93
2023-04-02T02:50:17.757Z,167.85
2023-04-02T02:51:17.773Z,168.15
2023-04-02T02:52:17.776Z,167.96
2023-04-02T02:53:17.772Z,171.49
2023-04-02T02:54:17.774Z,172.86
2023-04-02T02:55:17.776Z,170.54
2023-04-02T02:56:17.788Z,169.95
2023-04-02T02:57:17.892Z,167.56
2023-04-02T02:58:17.774Z,163.94
2023-04-02T02:59:17.777Z,167.83
2023-04-02T03:00:17.799Z,171.26
2023-04-02T03:01:17.830Z,168.42
2023-04-02T03:02:17.904Z,170.91
2023-04-02T03:03:17.935Z,171.01
2023-04-02T03:04:17.886Z,163.40
2023-04-02T03:05:17.842Z,165.07
2023-04-02T03:06:17.839Z,166.68
2023-04-02T03:07:17.845Z,165.61
2023-04-02T03:08:17.846Z,164.21
2023-04-02T03:09:17.852Z,163.90
2023-04-02T03:10:17.876Z,165.13
2023-04-02T03:11:17.866Z,164.06
2023-04-02T03:12:17.884Z,163.80
2023-04-02T03:13:17.892Z,165.60
2023-04-02T03:14:17.887Z,161.89
2023-04-02T03:15:17.894Z,162.22
2023-04-02T03:16:18.000Z,165.04
2023-04-02T03:17:17.907Z,167.09
2023-04-02T03:18:17.910Z,167.97
2023-04-02T03:19:17.885Z,168.82
2023-04-02T03:20:17.903Z,163.00
2023-04-02T03:21:17.905Z,167.97
2023-04-02T03:22:17.917Z,164.12
2023-04-02T03:23:19.220Z,168.33
2023-04-02T03:24:17.939Z,170.87
2023-04-02T03:25:17.928Z,170.28
2023-04-02T03:26:17.937Z,170.76
2023-04-02T03:27:17.951Z,169.79
2023-04-02T03:28:17.952Z,169.64
2023-04-02T03:29:17.975Z,169.23
2023-04-02T03:30:17.958Z,165.98
2023-04-02T03:31:17.969Z,164.81
2023-04-02T03:32:17.941Z,164.74
2023-04-02T03:33:17.965Z,163.89
2023-04-02T03:34:17.968Z,166.00
2023-04-02T03:35:17.956Z,173.36
2023-04-02T03:36:17.991Z,172.82
2023-04-02T03:37:17.946Z,171.34
2023-04-02T03:38:17.957Z,166.75
2023-04-02T03:39:17.958Z,166.50
2023-04-02T03:40:17.968Z,167.33
2023-04-02T03:41:17.961Z,168.96
2023-04-02T03:42:17.968Z,167.48
2023-04-02T03:43:17.981Z,169.28
2023-04-02T03:44:17.974Z,168.73
2023-04-02T03:45:17.996Z,163.41
2023-04-02T03:46:18.022Z,161.15
2023-04-02T03:47:17.985Z,160.51
2023-04-02T03:48:17.982Z,162.38
2023-04-02T03:49:18.010Z,161.32
2023-04-02T03:50:18.000Z,159.65
2023-04-02T03:51:18.030Z,156.23
2023-04-02T03:52:18.044Z,161.82
2023-04-02T03:53:18.036Z,158.08
2023-04-02T03:54:18.042Z,163.28
2023-04-02T03:55:18.046Z,162.54
2023-04-02T03:56:18.052Z,164.36
2023-04-02T03:57:18.130Z,165.76
2023-04-02T03:58:18.057Z,167.28
2023-04-02T03:59:18.078Z,165.63
2023-04-02T04:00:18.079Z,165.84
2023-04-02T04:01:18.066Z,165.17
2023-04-02T04:02:18.097Z,165.71
2023-04-02T04:03:18.064Z,166.68
2023-04-02T04:04:18.120Z,171.23
2023-04-02T04:05:18.076Z,167.12
2023-04-02T04:06:19.619Z,168.49
2023-04-02T04:07:18.092Z,166.96
2023-04-02T04:08:18.095Z,171.88
2023-04-02T04:09:18.074Z,172.00
2023-04-02T04:10:18.080Z,171.13
2023-04-02T04:11:18.126Z,170.92
2023-04-02T04:12:18.086Z,168.78
2023-04-02T04:13:18.091Z,172.16
2023-04-02T04:14:18.100Z,170.21
2023-04-02T04:15:18.098Z,169.04
2023-04-02T04:16:18.130Z,170.97
2023-04-02T04:17:18.110Z,171.07
2023-04-02T04:18:18.120Z,168.89
2023-04-02T04:19:18.146Z,173.88
2023-04-02T04:20:18.121Z,171.58
2023-04-02T04:21:18.144Z,166.79
2023-04-02T04:22:18.125Z,168.65
2023-04-02T04:23:18.129Z,167.36
2023-04-02T04:24:18.162Z,168.14
2023-04-02T04:25:18.150Z,167.26
2023-04-02T04:26:18.142Z,167.82
2023-04-02T04:27:18.149Z,167.99
2023-04-02T04:28:18.157Z,171.15
2023-04-02T04:29:18.141Z,170.75
2023-04-02T04:30:18.177Z,169.87
2023-04-02T04:31:18.189Z,169.20
2023-04-02T04:32:18.243Z,165.97
2023-04-02T04:33:18.165Z,169.26
2023-04-02T04:34:18.171Z,162.07
2023-04-02T04:35:18.180Z,170.12
2023-04-02T04:36:18.222Z,160.15
2023-04-02T04:37:18.187Z,165.28
2023-04-02T04:38:18.181Z,170.70
2023-04-02T04:39:18.206Z,167.73
2023-04-02T04:40:18.183Z,164.89
2023-04-02T04:41:18.216Z,168.44
2023-04-02T04:42:18.227Z,166.24
2023-04-02T04:43:18.214Z,163.82
2023-04-02T04:44:18.249Z,160.40
2023-04-02T04:45:18.225Z,160.77
2023-04-02T04:46:18.280Z,164.03
2023-04-02T04:47:18.262Z,169.42
2023-04-02T04:48:18.240Z,169.59
2023-04-02T04:49:18.219Z,164.52
2023-04-02T04:50:18.233Z,170.80
2023-04-02T04:51:18.228Z,166.33
2023-04-02T04:52:18.249Z,170.46
2023-04-02T04:53:18.253Z,168.77
2023-04-02T04:54:18.256Z,171.74
2023-04-02T04:55:18.307Z,171.74
2023-04-02T04:56:19.628Z,165.30
2023-04-02T04:57:18.358Z,167.39
2023-04-02T04:58:18.271Z,164.34
2023-04-02T04:59:18.271Z,166.96
2023-04-02T05:00:18.280Z,167.71
2023-04-02T05:01:18.311Z,165.79
2023-04-02T05:02:18.306Z,166.29
2023-04-02T05:03:18.293Z,167.75
2023-04-02T05:04:18.341Z,170.72
2023-04-02T05:05:18.304Z,165.53
2023-04-02T05:06:18.310Z,167.60
2023-04-02T05:07:18.317Z,167.80
2023-04-02T05:08:18.377Z,168.69
2023-04-02T05:09:18.328Z,171.28
2023-04-02T05:10:18.360Z,169.65
2023-04-02T05:11:18.365Z,171.49
2023-04-02T05:12:18.351Z,169.64
2023-04-02T05:13:18.391Z,172.12
2023-04-02T05:14:18.388Z,171.81
2023-04-02T05:15:18.398Z,172.05
2023-04-02T05:16:18.489Z,166.54
2023-04-02T05:17:18.402Z,168.46
2023-04-02T05:18:18.435Z,168.32
2023-04-02T05:19:18.428Z,167.81
2023-04-02T05:20:18.441Z,170.05
2023-04-02T05:21:18.426Z,172.20
2023-04-02T05:22:18.426Z,168.22
2023-04-02T05:23:18.447Z,168.58
2023-04-02T05:24:18.455Z,170.00
2023-04-02T05:25:18.470Z,169.56
2023-04-02T05:26:18.449Z,171.27
2023-04-02T05:27:18.471Z,171.41
2023-04-02T05:28:18.475Z,174.15
2023-04-02T05:29:18.474Z,169.73
2023-04-02T05:30:20.089Z,167.19
2023-04-02T05:31:18.530Z,168.34
2023-04-02T05:32:18.482Z,165.32
2023-04-02T05:33:18.516Z,173.44
2023-04-02T05:34:18.481Z,171.10
2023-04-02T05:35:18.473Z,171.93
2023-04-02T05:36:18.510Z,170.65
2023-04-02T05:37:18.476Z,165.76
2023-04-02T05:38:18.471Z,159.03
2023-04-02T05:39:18.470Z,157.71
2023-04-02T05:40:18.485Z,156.72
2023-04-02T05:41:18.480Z,151.64
2023-04-02T05:42:18.490Z,157.97
2023-04-02T05:43:18.467Z,153.48
2023-04-02T05:44:18.462Z,151.32
2023-04-02T05:45:18.466Z,150.14
2023-04-02T05:46:18.541Z,145.74
2023-04-02T05:47:18.498Z,144.58
2023-04-02T05:48:18.497Z,139.84
2023-04-02T05:49:18.517Z,139.68
2023-04-02T05:50:18.541Z,141.02
2023-04-02T05:51:18.573Z,134.86
2023-04-02T05:52:18.602Z,144.44
2023-04-02T05:53:18.652Z,139.91
2023-04-02T05:54:18.640Z,147.55
2023-04-02T05:55:18.670Z,146.83
2023-04-02T05:56:18.701Z,143.22
2023-04-02T05:57:19.383Z,137.48
2023-04-02T05:59:18.774Z,141.52
2023-04-02T06:00:18.795Z,145.66
2023-04-02T06:01:18.755Z,140.45
2023-04-02T06:02:18.752Z,142.68
2023-04-02T06:03:18.818Z,143.80
2023-04-02T06:04:18.755Z,137.52
2023-04-02T06:05:18.719Z,135.62
2023-04-02T06:06:18.730Z,139.99
2023-04-02T06:07:18.720Z,135.33
2023-04-02T06:08:18.719Z,134.89
2023-04-02T06:09:18.691Z,134.45
2023-04-02T06:10:18.708Z,135.42
2023-04-02T06:11:18.683Z,132.67
2023-04-02T06:12:18.722Z,135.21
2023-04-02T06:13:18.691Z,132.23
2023-04-02T06:14:18.684Z,128.22
2023-04-02T06:15:18.677Z,130.40
2023-04-02T06:16:18.718Z,135.09
2023-04-02T06:17:18.657Z,142.44
2023-04-02T06:18:18.655Z,146.66
2023-04-02T06:19:18.634Z,152.09
2023-04-02T06:20:18.634Z,154.96
2023-04-02T06:21:18.637Z,153.34
2023-04-02T06:22:18.618Z,163.38
2023-04-02T06:23:18.613Z,164.41
2023-04-02T06:24:18.609Z,159.85
2023-04-02T06:25:18.596Z,168.25
2023-04-02T06:26:18.606Z,164.62
2023-04-02T06:27:18.580Z,166.09
2023-04-02T06:28:18.612Z,173.85
2023-04-02T06:29:18.586Z,177.47
2023-04-02T06:30:18.597Z,181.37
2023-04-02T06:31:18.608Z,185.93
2023-04-02T06:32:18.565Z,196.48
2023-04-02T06:33:18.570Z,203.04
2023-04-02T06:34:18.571Z,200.75
2023-04-02T06:35:18.542Z,200.31
2023-04-02T06:36:18.600Z,189.17
2023-04-02T06:37:18.553Z,189.06
2023-04-02T06:38:18.521Z,184.80
2023-04-02T06:39:18.544Z,181.23
2023-04-02T06:40:18.507Z,176.08
2023-04-02T06:41:18.496Z,170.49
2023-04-02T06:42:18.507Z,171.40
2023-04-02T06:43:18.490Z,166.32
2023-04-02T06:44:18.508Z,171.06
2023-04-02T06:45:18.506Z,161.94
2023-04-02T06:46:18.504Z,165.64
2023-04-02T06:47:18.469Z,169.92
2023-04-02T06:48:18.467Z,167.69
2023-04-02T06:49:18.451Z,169.76
2023-04-02T06:50:18.456Z,165.52
2023-04-02T06:51:18.450Z,162.34
2023-04-02T06:52:18.429Z,160.58
2023-04-02T06:53:18.495Z,157.57
2023-04-02T06:54:18.556Z,151.42
2023-04-02T06:55:18.695Z,147.02
2023-04-02T06:56:18.664Z,148.19
2023-04-02T06:57:18.730Z,151.85
2023-04-02T06:58:18.803Z,152.09
2023-04-02T06:59:18.857Z,155.67
2023-04-02T07:00:18.912Z,158.09
2023-04-02T07:01:18.984Z,151.21
2023-04-02T07:02:19.039Z,153.82
2023-04-02T07:03:19.084Z,151.65
2023-04-02T07:04:19.157Z,153.90
2023-04-02T07:05:19.204Z,151.81
2023-04-02T07:06:19.306Z,148.59
2023-04-02T07:07:19.323Z,148.45
2023-04-02T07:08:19.393Z,150.38
2023-04-02T07:09:19.448Z,152.53
2023-04-02T07:10:19.512Z,149.72
2023-04-02T07:11:20.924Z,151.68
2023-04-02T07:12:19.630Z,151.33
2023-04-02T07:13:19.695Z,154.41
2023-04-02T07:14:19.751Z,150.40
2023-04-02T07:15:19.800Z,151.81
2023-04-02T07:16:19.896Z,147.11
2023-04-02T07:17:19.946Z,134.30
2023-04-02T07:18:19.971Z,133.82
2023-04-02T07:19:20.068Z,125.92
2023-04-02T07:20:20.080Z,121.14
2023-04-02T07:21:20.131Z,122.96
2023-04-02T07:22:20.193Z,121.84
2023-04-02T07:23:20.233Z,122.87
2023-04-02T07:24:20.305Z,117.22
2023-04-02T07:25:20.365Z,126.86
2023-04-02T07:26:20.415Z,133.43
2023-04-02T07:27:20.457Z,134.66
2023-04-02T07:28:22.507Z,129.39
2023-04-02T07:29:20.546Z,125.29
2023-04-02T07:30:20.590Z,132.80
2023-04-02T07:31:20.698Z,134.86
2023-04-02T07:32:20.694Z,141.12
2023-04-02T07:33:20.733Z,137.62
2023-04-02T07:34:20.806Z,138.82
2023-04-02T07:35:20.852Z,143.72
2023-04-02T07:36:20.914Z,144.05
2023-04-02T07:37:20.941Z,142.29
2023-04-02T07:38:21.096Z,138.75
2023-04-02T07:39:21.038Z,144.03
2023-04-02T07:40:21.105Z,140.26
2023-04-02T07:41:21.135Z,146.45
2023-04-02T07:42:21.181Z,145.74
2023-04-02T07:43:21.302Z,147.67
2023-04-02T07:44:21.294Z,146.01
2023-04-02T07:45:21.346Z,146.05
2023-04-02T07:46:21.409Z,143.53
2023-04-02T07:47:21.442Z,142.56
2023-04-02T07:48:21.509Z,137.33
2023-04-02T07:49:21.546Z,142.49
2023-04-02T07:50:21.618Z,142.98
2023-04-02T07:51:21.663Z,137.12
2023-04-02T07:52:21.770Z,143.39
2023-04-02T07:53:21.769Z,144.65
2023-04-02T07:54:21.815Z,138.44
2023-04-02T07:55:21.829Z,142.41
2023-04-02T07:56:21.873Z,141.32
2023-04-02T07:57:21.968Z,142.50
2023-04-02T07:58:21.962Z,138.13
2023-04-02T07:59:22.023Z,136.01
2023-04-02T08:00:22.078Z,139.33
2023-04-02T08:01:22.114Z,132.48
2023-04-02T08:02:22.192Z,134.96
2023-04-02T08:03:22.250Z,135.68
2023-04-02T08:04:22.331Z,138.26
2023-04-02T08:05:22.287Z,142.05
2023-04-02T08:06:22.322Z,139.04
2023-04-02T08:07:22.378Z,140.68
2023-04-02T08:08:22.431Z,140.46
2023-04-02T08:09:22.476Z,137.89
2023-04-02T08:10:22.513Z,134.79
2023-04-02T08:11:22.563Z,141.47
2023-04-02T08:12:22.618Z,135.05
2023-04-02T08:13:22.652Z,135.69
2023-04-02T08:14:22.710Z,131.95
2023-04-02T08:15:22.748Z,125.71
2023-04-02T08:16:22.842Z,130.49
2023-04-02T08:17:22.860Z,134.50
2023-04-02T08:18:22.917Z,126.47
2023-04-02T08:19:22.984Z,120.58
2023-04-02T08:20:23.036Z,122.25
2023-04-02T08:21:23.083Z,114.51
2023-04-02T08:22:23.140Z,119.17
2023-04-02T08:23:23.179Z,116.01
2023-04-02T08:24:23.241Z,112.55
2023-04-02T08:25:23.274Z,101.38
2023-04-02T08:26:23.356Z,100.79
2023-04-02T08:27:23.381Z,100.87
2023-04-02T08:28:23.496Z,93.70
2023-04-02T08:29:23.492Z,97.68
2023-04-02T08:30:23.533Z,92.71
2023-04-02T08:31:23.655Z,88.20
2023-04-02T08:32:23.625Z,92.18
2023-04-02T08:33:23.692Z,89.47
2023-04-02T08:34:23.717Z,97.05
2023-04-02T08:35:23.778Z,84.70
2023-04-02T08:36:23.825Z,82.33
2023-04-02T08:37:23.873Z,87.96
2023-04-02T08:38:23.937Z,95.98
2023-04-02T08:39:23.974Z,83.61
2023-04-02T08:40:23.998Z,87.51
2023-04-02T08:41:24.044Z,80.82
2023-04-02T08:42:24.085Z,88.76
2023-04-02T08:43:24.152Z,85.92
2023-04-02T08:44:24.188Z,87.31
2023-04-02T08:45:25.618Z,83.97
2023-04-02T08:46:24.329Z,85.15
2023-04-02T08:47:24.358Z,84.62
2023-04-02T08:48:24.372Z,82.32
2023-04-02T08:49:24.406Z,86.17
2023-04-02T08:50:24.427Z,83.17
2023-04-02T08:51:24.463Z,84.64
2023-04-02T08:52:24.536Z,89.12
2023-04-02T08:53:24.589Z,86.49
2023-04-02T08:54:24.618Z,76.00
2023-04-02T08:55:24.640Z,71.30
2023-04-02T08:56:24.675Z,69.41
2023-04-02T08:57:24.793Z,71.06
2023-04-02T08:58:24.801Z,66.31
2023-04-02T08:59:24.837Z,65.77
2023-04-02T09:00:24.891Z,64.72
2023-04-02T09:01:24.930Z,63.89
2023-04-02T09:02:25.001Z,56.69
2023-04-02T09:03:25.037Z,63.58
2023-04-02T09:04:25.154Z,67.88
2023-04-02T09:05:25.136Z,56.19
2023-04-02T09:06:25.171Z,55.67
2023-04-02T09:07:25.238Z,56.10
2023-04-02T09:08:25.291Z,51.59
2023-04-02T09:09:25.357Z,58.86
2023-04-02T09:10:25.389Z,51.26
2023-04-02T09:11:25.428Z,58.00
2023-04-02T09:12:25.479Z,60.00
2023-04-02T09:13:25.536Z,67.32
2023-04-02T09:14:25.571Z,65.12
2023-04-02T09:15:25.646Z,53.49
2023-04-02T09:16:25.759Z,54.29
2023-04-02T09:17:25.778Z,52.55
2023-04-02T09:18:25.842Z,63.11
2023-04-02T09:19:25.840Z,73.82
2023-04-02T09:20:25.893Z,67.40
2023-04-02T09:21:25.919Z,68.96
2023-04-02T09:22:25.995Z,65.02
2023-04-02T09:23:26.147Z,67.37
2023-04-02T09:24:26.106Z,73.90
2023-04-02T09:25:26.147Z,63.77
2023-04-02T09:26:26.178Z,63.10
2023-04-02T09:27:26.255Z,57.82
2023-04-02T09:28:26.307Z,64.76
2023-04-02T09:29:26.367Z,50.20
2023-04-02T09:30:26.421Z,55.23
2023-04-02T09:31:26.489Z,65.78
2023-04-02T09:32:26.531Z,57.05
2023-04-02T09:33:26.574Z,56.18
2023-04-02T09:34:26.640Z,53.99
2023-04-02T09:35:39.191Z,62.52
2023-04-02T09:36:27.818Z,62.54
2023-04-02T09:37:26.682Z,63.20
2023-04-02T09:38:26.694Z,64.44
2023-04-02T09:39:26.690Z,66.52
2023-04-02T09:40:26.671Z,69.55
2023-04-02T09:41:26.660Z,60.00
2023-04-02T09:42:26.654Z,46.15
2023-04-02T09:43:26.655Z,44.35
2023-04-02T09:44:26.652Z,48.32
2023-04-02T09:45:26.666Z,42.47
2023-04-02T09:46:26.745Z,43.21
2023-04-02T09:47:26.800Z,40.22
2023-04-02T09:48:26.856Z,34.01
2023-04-02T09:49:26.937Z,31.31
2023-04-02T09:50:26.965Z,36.92
2023-04-02T09:51:27.041Z,37.80
2023-04-02T09:52:27.094Z,37.35
2023-04-02T09:53:27.134Z,46.89
2023-04-02T09:54:27.224Z,45.51
2023-04-02T09:55:27.264Z,40.54
2023-04-02T09:56:27.312Z,38.10
2023-04-02T09:57:27.439Z,31.99
2023-04-02T09:58:27.398Z,32.87
2023-04-02T09:59:27.443Z,38.43
2023-04-02T10:00:32.196Z,25.00
2023-04-02T10:01:28.596Z,25.39
2023-04-02T10:02:27.494Z,25.62
2023-04-02T10:03:27.483Z,19.66
2023-04-02T10:04:27.522Z,18.28
2023-04-02T10:05:39.253Z,3.70
2023-04-02T10:06:28.447Z,25.07
2023-04-02T10:07:27.435Z,26.28
2023-04-02T10:08:27.435Z,29.66
2023-04-02T10:09:27.439Z,24.32
2023-04-02T10:10:27.427Z,22.44
2023-04-02T10:11:36.586Z,27.90
2023-04-02T10:12:28.401Z,27.94
2023-04-02T10:13:27.395Z,23.05
2023-04-02T10:14:27.411Z,31.36
2023-04-02T10:15:27.374Z,30.77
2023-04-02T10:16:27.408Z,29.24
2023-04-02T10:17:27.422Z,35.45
2023-04-02T10:18:27.387Z,25.00
2023-04-02T10:19:27.355Z,38.42
2023-04-02T10:20:27.408Z,43.76
2023-04-02T10:21:27.423Z,40.32
2023-04-02T10:22:27.459Z,33.16
2023-04-02T10:23:27.519Z,36.95
2023-04-02T10:24:27.583Z,42.60
2023-04-02T10:25:27.595Z,31.94
2023-04-02T10:26:27.711Z,35.67
2023-04-02T10:27:27.720Z,49.50
2023-04-02T10:28:27.765Z,38.07
2023-04-02T10:29:27.820Z,31.58
2023-04-02T10:30:27.841Z,32.44
2023-04-02T10:31:28.028Z,41.19
2023-04-02T10:32:27.911Z,45.10
2023-04-02T10:33:27.961Z,49.95
2023-04-02T10:34:28.023Z,54.59
2023-04-02T10:35:28.065Z,24.67
2023-04-02T10:36:28.080Z,41.20
2023-04-02T10:37:28.164Z,40.75
2023-04-02T10:38:28.185Z,36.18
2023-04-02T10:39:28.246Z,42.30
2023-04-02T10:40:28.262Z,33.40
2023-04-02T10:41:28.271Z,31.85
2023-04-02T10:42:28.292Z,42.94
2023-04-02T10:43:28.386Z,44.04
2023-04-02T10:44:28.406Z,36.71
2023-04-02T10:45:28.432Z,39.20
2023-04-02T10:46:28.499Z,36.95
2023-04-02T10:47:28.533Z,45.01
2023-04-02T10:48:28.559Z,54.79
2023-04-02T10:49:28.695Z,38.44
2023-04-02T10:50:28.664Z,35.13
2023-04-02T10:51:28.685Z,31.52
2023-04-02T10:52:28.709Z,30.10
2023-04-02T10:53:28.717Z,24.96
2023-04-02T10:54:28.718Z,35.93
2023-04-02T10:55:28.729Z,43.04
2023-04-02T10:56:35.157Z,29.96
2023-04-02T10:57:29.787Z,29.99
2023-04-02T10:58:28.737Z,11.67
2023-04-02T10:59:28.744Z,8.77
2023-04-02T11:00:28.732Z,32.25
2023-04-02T11:01:28.794Z,38.07
2023-04-02T11:02:28.907Z,36.67
2023-04-02T11:03:28.850Z,25.00
2023-04-02T11:04:28.703Z,27.00
2023-04-02T11:05:28.709Z,35.11
2023-04-02T11:06:28.729Z,39.08
2023-04-02T11:07:28.689Z,36.61
2023-04-02T11:08:28.736Z,45.31
2023-04-02T11:09:28.834Z,51.04
2023-04-02T11:10:28.940Z,40.00
2023-04-02T11:11:28.934Z,50.31
2023-04-02T11:12:28.955Z,54.51
2023-04-02T11:13:28.920Z,48.97
2023-04-02T11:14:28.944Z,48.23
2023-04-02T11:15:28.927Z,29.46
2023-04-02T11:16:29.076Z,47.97
2023-04-02T11:17:29.035Z,53.82
2023-04-02T11:18:29.001Z,52.47
2023-04-02T11:19:28.998Z,46.93
2023-04-02T11:20:28.996Z,33.89
2023-04-02T11:21:29.006Z,37.92
2023-04-02T11:22:29.047Z,46.40
2023-04-02T11:23:29.146Z,44.54
2023-04-02T11:24:29.241Z,62.46
2023-04-02T11:25:29.338Z,72.90
2023-04-02T11:26:29.406Z,54.68
2023-04-02T11:27:29.517Z,48.07
2023-04-02T11:28:29.538Z,64.95
2023-04-02T11:29:29.507Z,57.29
2023-04-02T11:30:29.511Z,30.35
2023-04-02T11:31:29.535Z,43.45
2023-04-02T11:32:29.533Z,50.74
2023-04-02T11:33:36.532Z,60.18
2023-04-02T11:34:30.510Z,60.65
2023-04-02T11:35:29.490Z,62.57
2023-04-02T11:36:29.489Z,65.23
2023-04-02T11:37:29.475Z,64.60
2023-04-02T11:38:29.474Z,60.18
2023-04-02T11:39:29.460Z,64.83
2023-04-02T11:40:29.494Z,63.98
2023-04-02T11:41:29.455Z,69.96
2023-04-02T11:42:29.442Z,59.16
2023-04-02T11:43:29.425Z,56.80
2023-04-02T11:44:29.423Z,61.43
2023-04-02T11:45:30.182Z,66.37
2023-04-02T11:46:29.477Z,84.36
2023-04-02T11:47:29.407Z,80.71
2023-04-02T11:48:29.388Z,76.57
2023-04-02T11:49:29.373Z,76.04
2023-04-02T11:50:29.391Z,65.60
2023-04-02T11:51:29.398Z,69.92
2023-04-02T11:52:29.366Z,75.37
2023-04-02T11:53:29.413Z,86.24
2023-04-02T11:54:29.418Z,83.21
2023-04-02T11:55:29.417Z,83.24
2023-04-02T11:56:29.437Z,88.95
2023-04-02T11:57:29.419Z,87.55
2023-04-02T11:58:29.428Z,81.85
2023-04-02T11:59:29.494Z,91.85
2023-04-02T12:00:29.614Z,90.58
2023-04-02T12:01:29.702Z,89.39
2023-04-02T12:02:29.751Z,78.36
2023-04-02T12:03:29.703Z,82.16
2023-04-02T12:04:29.731Z,92.11
2023-04-02T12:05:29.798Z,83.46
2023-04-02T12:06:29.753Z,80.27
2023-04-02T12:07:29.822Z,79.38
2023-04-02T12:08:29.772Z,73.21
2023-04-02T12:09:29.777Z,40.00
2023-04-02T12:10:29.788Z,40.57
2023-04-02T12:11:29.818Z,55.32
2023-04-02T12:12:29.809Z,46.80
2023-04-02T12:13:29.843Z,36.24
2023-04-02T12:14:29.827Z,37.16
2023-04-02T12:15:29.834Z,39.37
2023-04-02T12:16:29.844Z,64.92
2023-04-02T12:17:29.927Z,63.30
2023-04-02T12:18:29.891Z,74.14
2023-04-02T12:19:29.871Z,83.82
2023-04-02T12:20:29.882Z,76.92
2023-04-02T12:21:29.880Z,69.04
2023-04-02T12:22:29.883Z,68.64
2023-04-02T12:23:29.963Z,60.92
2023-04-02T12:24:30.099Z,68.24
2023-04-02T12:25:30.075Z,79.38
2023-04-02T12:26:30.052Z,85.19
2023-04-02T12:27:30.041Z,89.17
2023-04-02T12:28:30.062Z,95.67
2023-04-02T12:29:30.047Z,94.52
2023-04-02T12:30:30.121Z,83.23
2023-04-02T12:31:30.252Z,83.10
2023-04-02T12:32:30.412Z,87.51
2023-04-02T12:33:30.430Z,103.20
2023-04-02T12:34:30.530Z,98.80
2023-04-02T12:35:30.602Z,94.34
2023-04-02T12:36:30.598Z,104.00
2023-04-02T12:37:30.614Z,105.65